sensor_id;sensor_type;location;lat;lon;timestamp;temperature;humidity
7427;DHT22;3755;59.316;18.092;2023-03-07T00:00:07;-4.40;99.90
7427;DHT22;3755;59.316;18.092;2023-03-07T00:02:34;-4.30;99.90
7427;DHT22;3755;59.316;18.092;2023-03-07T00:05:04;-4.30;99.90
7427;DHT22;3755;59.316;18.092;2023-03-07T00:07:31;-4.40;99.90
7427;DHT22;3755;59.316;18.092;2023-03-07T00:09:59;-4.50;99.90
7427;DHT22;3755;59.316;18.092;2023-03-07T00:12:28;-4.60;99.90
7427;DHT22;3755;59.316;18.092;2023-03-07T00:14:55;-4.50;99.90
7427;DHT22;3755;59.316;18.092;2023-03-07T00:17:22;-4.50;99.90
7427;DHT22;3755;59.316;18.092;2023-03-07T00:19:49;-4.40;99.90
7427;DHT22;3755;59.316;18.092;2023-03-07T00:22:18;-4.50;99.90
7427;DHT22;3755;59.316;18.092;2023-03-07T00:24:47;-4.60;99.90
7427;DHT22;3755;59.316;18.092;2023-03-07T00:27:14;-4.50;99.90
7427;DHT22;3755;59.316;18.092;2023-03-07T00:29:42;-4.50;99.90
7427;DHT22;3755;59.316;18.092;2023-03-07T00:32:09;-4.50;99.90
7427;DHT22;3755;59.316;18.092;2023-03-07T00:34:36;-4.40;99.90
7427;DHT22;3755;59.316;18.092;2023-03-07T00:37:04;-4.40;99.90
7427;DHT22;3755;59.316;18.092;2023-03-07T00:39:33;-4.40;99.90
7427;DHT22;3755;59.316;18.092;2023-03-07T00:42:00;-4.50;99.90
7427;DHT22;3755;59.316;18.092;2023-03-07T00:44:28;-4.60;99.90
7427;DHT22;3755;59.316;18.092;2023-03-07T00:46:57;-4.70;99.90
7427;DHT22;3755;59.316;18.092;2023-03-07T00:49:25;-4.70;99.90
7427;DHT22;3755;59.316;18.092;2023-03-07T00:51:52;-4.70;99.90
7427;DHT22;3755;59.316;18.092;2023-03-07T00:54:20;-4.80;99.90
7427;DHT22;3755;59.316;18.092;2023-03-07T00:56:51;-4.80;99.90
7427;DHT22;3755;59.316;18.092;2023-03-07T00:59:19;-4.80;99.90
7427;DHT22;3755;59.316;18.092;2023-03-07T01:01:46;-4.80;99.90
7427;DHT22;3755;59.316;18.092;2023-03-07T01:04:14;-4.80;99.90
7427;DHT22;3755;59.316;18.092;2023-03-07T01:06:55;-4.90;99.90
7427;DHT22;3755;59.316;18.092;2023-03-07T01:09:23;-4.90;99.90
7427;DHT22;3755;59.316;18.092;2023-03-07T01:11:53;-4.80;99.90
7427;DHT22;3755;59.316;18.092;2023-03-07T01:14:20;-4.70;99.90
7427;DHT22;3755;59.316;18.092;2023-03-07T01:16:47;-4.60;99.90
7427;DHT22;3755;59.316;18.092;2023-03-07T01:19:33;-4.60;99.90
7427;DHT22;3755;59.316;18.092;2023-03-07T01:22:01;-4.60;99.90
7427;DHT22;3755;59.316;18.092;2023-03-07T01:24:29;-4.60;99.90
7427;DHT22;3755;59.316;18.092;2023-03-07T01:26:59;-4.60;99.90
7427;DHT22;3755;59.316;18.092;2023-03-07T01:29:30;-4.70;99.90
7427;DHT22;3755;59.316;18.092;2023-03-07T01:31:57;-4.80;99.90
7427;DHT22;3755;59.316;18.092;2023-03-07T01:34:24;-4.90;99.90
7427;DHT22;3755;59.316;18.092;2023-03-07T01:36:54;-4.90;99.90
7427;DHT22;3755;59.316;18.092;2023-03-07T01:39:21;-5.00;99.90
7427;DHT22;3755;59.316;18.092;2023-03-07T01:41:48;-5.00;99.90
7427;DHT22;3755;59.316;18.092;2023-03-07T01:44:20;-5.00;99.90
7427;DHT22;3755;59.316;18.092;2023-03-07T01:46:49;-5.10;99.90
7427;DHT22;3755;59.316;18.092;2023-03-07T01:49:24;-5.10;99.90
7427;DHT22;3755;59.316;18.092;2023-03-07T01:52:09;-5.10;99.90
7427;DHT22;3755;59.316;18.092;2023-03-07T01:54:55;-5.10;99.90
7427;DHT22;3755;59.316;18.092;2023-03-07T01:57:27;-5.00;99.90
7427;DHT22;3755;59.316;18.092;2023-03-07T02:00:06;-4.90;99.90
7427;DHT22;3755;59.316;18.092;2023-03-07T02:02:37;-4.80;99.90
7427;DHT22;3755;59.316;18.092;2023-03-07T02:05:09;-4.80;99.90
7427;DHT22;3755;59.316;18.092;2023-03-07T02:07:40;-4.70;99.90
7427;DHT22;3755;59.316;18.092;2023-03-07T02:10:10;-4.70;99.90
7427;DHT22;3755;59.316;18.092;2023-03-07T02:12:40;-4.80;99.90
7427;DHT22;3755;59.316;18.092;2023-03-07T02:15:13;-4.80;99.90
7427;DHT22;3755;59.316;18.092;2023-03-07T02:17:41;-4.80;99.90
7427;DHT22;3755;59.316;18.092;2023-03-07T02:20:21;-4.80;99.90
7427;DHT22;3755;59.316;18.092;2023-03-07T02:22:50;-4.80;99.90
7427;DHT22;3755;59.316;18.092;2023-03-07T02:25:22;-4.90;99.90
7427;DHT22;3755;59.316;18.092;2023-03-07T02:27:54;-4.90;99.90
7427;DHT22;3755;59.316;18.092;2023-03-07T02:30:23;-4.90;99.90
7427;DHT22;3755;59.316;18.092;2023-03-07T02:32:51;-4.90;99.90
7427;DHT22;3755;59.316;18.092;2023-03-07T02:35:22;-4.90;99.90
7427;DHT22;3755;59.316;18.092;2023-03-07T02:37:52;-4.90;99.90
7427;DHT22;3755;59.316;18.092;2023-03-07T02:40:23;-4.90;99.90
7427;DHT22;3755;59.316;18.092;2023-03-07T02:42:54;-4.90;99.90
7427;DHT22;3755;59.316;18.092;2023-03-07T02:45:25;-5.00;99.90
7427;DHT22;3755;59.316;18.092;2023-03-07T02:47:53;-5.10;99.90
7427;DHT22;3755;59.316;18.092;2023-03-07T02:50:20;-5.30;99.90
7427;DHT22;3755;59.316;18.092;2023-03-07T02:52:47;-5.40;99.90
7427;DHT22;3755;59.316;18.092;2023-03-07T02:55:16;-5.50;99.90
7427;DHT22;3755;59.316;18.092;2023-03-07T02:57:43;-5.50;99.90
7427;DHT22;3755;59.316;18.092;2023-03-07T03:00:12;-5.40;99.90
7427;DHT22;3755;59.316;18.092;2023-03-07T03:02:40;-5.40;99.90
7427;DHT22;3755;59.316;18.092;2023-03-07T03:05:08;-5.60;99.90
7427;DHT22;3755;59.316;18.092;2023-03-07T03:07:36;-5.60;99.90
7427;DHT22;3755;59.316;18.092;2023-03-07T03:10:04;-5.60;99.90
7427;DHT22;3755;59.316;18.092;2023-03-07T03:12:31;-5.70;99.90
7427;DHT22;3755;59.316;18.092;2023-03-07T03:14:59;-5.60;99.90
7427;DHT22;3755;59.316;18.092;2023-03-07T03:17:27;-5.50;99.90
7427;DHT22;3755;59.316;18.092;2023-03-07T03:19:55;-5.50;99.90
7427;DHT22;3755;59.316;18.092;2023-03-07T03:22:22;-5.50;99.90
7427;DHT22;3755;59.316;18.092;2023-03-07T03:24:50;-5.60;99.90
7427;DHT22;3755;59.316;18.092;2023-03-07T03:27:18;-5.80;99.90
7427;DHT22;3755;59.316;18.092;2023-03-07T03:29:45;-5.80;99.90
7427;DHT22;3755;59.316;18.092;2023-03-07T03:32:12;-5.90;99.90
7427;DHT22;3755;59.316;18.092;2023-03-07T03:34:42;-5.80;99.90
7427;DHT22;3755;59.316;18.092;2023-03-07T03:37:10;-5.80;99.90
7427;DHT22;3755;59.316;18.092;2023-03-07T03:39:38;-5.90;99.90
7427;DHT22;3755;59.316;18.092;2023-03-07T03:42:05;-5.90;99.90
7427;DHT22;3755;59.316;18.092;2023-03-07T03:44:33;-6.00;99.90
7427;DHT22;3755;59.316;18.092;2023-03-07T03:47:01;-6.00;99.90
7427;DHT22;3755;59.316;18.092;2023-03-07T03:49:28;-6.10;99.90
7427;DHT22;3755;59.316;18.092;2023-03-07T03:51:57;-6.00;99.90
7427;DHT22;3755;59.316;18.092;2023-03-07T03:54:25;-6.00;99.90
7427;DHT22;3755;59.316;18.092;2023-03-07T03:56:52;-6.00;99.90
7427;DHT22;3755;59.316;18.092;2023-03-07T03:59:20;-6.00;99.90
7427;DHT22;3755;59.316;18.092;2023-03-07T04:01:48;-6.10;99.90
7427;DHT22;3755;59.316;18.092;2023-03-07T04:04:16;-6.10;99.90
7427;DHT22;3755;59.316;18.092;2023-03-07T04:06:44;-6.10;99.90
7427;DHT22;3755;59.316;18.092;2023-03-07T04:09:14;-6.10;99.90
7427;DHT22;3755;59.316;18.092;2023-03-07T04:11:41;-6.10;99.90
7427;DHT22;3755;59.316;18.092;2023-03-07T04:14:09;-6.20;99.90
7427;DHT22;3755;59.316;18.092;2023-03-07T04:16:36;-6.20;99.90
7427;DHT22;3755;59.316;18.092;2023-03-07T04:19:04;-6.30;99.90
7427;DHT22;3755;59.316;18.092;2023-03-07T04:21:31;-6.20;99.90
7427;DHT22;3755;59.316;18.092;2023-03-07T04:23:59;-6.20;99.90
7427;DHT22;3755;59.316;18.092;2023-03-07T04:26:28;-6.20;99.90
7427;DHT22;3755;59.316;18.092;2023-03-07T04:28:55;-6.20;99.90
7427;DHT22;3755;59.316;18.092;2023-03-07T04:31:24;-6.20;99.90
7427;DHT22;3755;59.316;18.092;2023-03-07T04:33:53;-6.20;99.90
7427;DHT22;3755;59.316;18.092;2023-03-07T04:36:21;-6.10;99.90
7427;DHT22;3755;59.316;18.092;2023-03-07T04:38:49;-6.20;99.90
7427;DHT22;3755;59.316;18.092;2023-03-07T04:41:18;-6.20;99.90
7427;DHT22;3755;59.316;18.092;2023-03-07T04:43:48;-6.20;99.90
7427;DHT22;3755;59.316;18.092;2023-03-07T04:46:16;-6.20;99.90
7427;DHT22;3755;59.316;18.092;2023-03-07T04:48:44;-6.20;99.90
7427;DHT22;3755;59.316;18.092;2023-03-07T04:51:14;-6.30;99.90
7427;DHT22;3755;59.316;18.092;2023-03-07T04:53:43;-6.30;99.90
7427;DHT22;3755;59.316;18.092;2023-03-07T04:56:10;-6.30;99.90
7427;DHT22;3755;59.316;18.092;2023-03-07T04:58:40;-6.30;99.90
7427;DHT22;3755;59.316;18.092;2023-03-07T05:01:11;-6.40;99.90
7427;DHT22;3755;59.316;18.092;2023-03-07T05:03:40;-6.30;99.90
7427;DHT22;3755;59.316;18.092;2023-03-07T05:06:12;-6.30;99.90
7427;DHT22;3755;59.316;18.092;2023-03-07T05:08:40;-6.30;99.90
7427;DHT22;3755;59.316;18.092;2023-03-07T05:11:18;-6.30;99.90
7427;DHT22;3755;59.316;18.092;2023-03-07T05:13:47;-6.30;99.90
7427;DHT22;3755;59.316;18.092;2023-03-07T05:16:15;-6.30;99.90
7427;DHT22;3755;59.316;18.092;2023-03-07T05:18:43;-6.30;99.90
7427;DHT22;3755;59.316;18.092;2023-03-07T05:21:10;-6.20;99.90
7427;DHT22;3755;59.316;18.092;2023-03-07T05:23:38;-6.20;99.90
7427;DHT22;3755;59.316;18.092;2023-03-07T05:26:23;-6.30;99.90
7427;DHT22;3755;59.316;18.092;2023-03-07T05:28:51;-6.30;99.90
7427;DHT22;3755;59.316;18.092;2023-03-07T05:31:20;-6.20;99.90
7427;DHT22;3755;59.316;18.092;2023-03-07T05:33:49;-6.20;99.90
7427;DHT22;3755;59.316;18.092;2023-03-07T05:36:21;-6.20;99.90
7427;DHT22;3755;59.316;18.092;2023-03-07T05:38:50;-6.20;99.90
7427;DHT22;3755;59.316;18.092;2023-03-07T05:41:21;-6.20;99.90
7427;DHT22;3755;59.316;18.092;2023-03-07T05:43:52;-6.10;99.90
7427;DHT22;3755;59.316;18.092;2023-03-07T05:46:22;-6.10;99.90
7427;DHT22;3755;59.316;18.092;2023-03-07T05:48:52;-6.00;99.90
7427;DHT22;3755;59.316;18.092;2023-03-07T05:51:20;-6.00;99.90
7427;DHT22;3755;59.316;18.092;2023-03-07T05:53:48;-5.90;99.90
7427;DHT22;3755;59.316;18.092;2023-03-07T05:56:15;-5.90;99.90
7427;DHT22;3755;59.316;18.092;2023-03-07T05:58:43;-5.90;99.90
7427;DHT22;3755;59.316;18.092;2023-03-07T06:01:12;-5.80;99.90
7427;DHT22;3755;59.316;18.092;2023-03-07T06:03:42;-5.70;99.90
7427;DHT22;3755;59.316;18.092;2023-03-07T06:06:18;-5.70;99.90
7427;DHT22;3755;59.316;18.092;2023-03-07T06:09:25;-5.70;99.90
7427;DHT22;3755;59.316;18.092;2023-03-07T06:12:19;-5.60;99.90
7427;DHT22;3755;59.316;18.092;2023-03-07T06:18:25;-5.50;99.90
7427;DHT22;3755;59.316;18.092;2023-03-07T06:41:05;-5.10;99.90
7427;DHT22;3755;59.316;18.092;2023-03-07T06:47:07;-4.90;99.90
7427;DHT22;3755;59.316;18.092;2023-03-07T06:50:07;-4.80;99.90
7427;DHT22;3755;59.316;18.092;2023-03-07T07:11:43;-4.10;99.90
7427;DHT22;3755;59.316;18.092;2023-03-07T07:15:10;-3.90;99.90
7427;DHT22;3755;59.316;18.092;2023-03-07T07:17:39;-3.80;99.90
7427;DHT22;3755;59.316;18.092;2023-03-07T07:20:23;-3.80;99.90
7427;DHT22;3755;59.316;18.092;2023-03-07T07:22:52;-3.70;99.90
7427;DHT22;3755;59.316;18.092;2023-03-07T07:25:52;-3.60;99.90
7427;DHT22;3755;59.316;18.092;2023-03-07T07:31:48;-3.40;99.90
7427;DHT22;3755;59.316;18.092;2023-03-07T07:34:29;-3.30;99.90
7427;DHT22;3755;59.316;18.092;2023-03-07T07:37:26;-3.20;99.90
7427;DHT22;3755;59.316;18.092;2023-03-07T07:40:09;-3.20;99.90
7427;DHT22;3755;59.316;18.092;2023-03-07T07:42:38;-3.00;99.90
7427;DHT22;3755;59.316;18.092;2023-03-07T07:45:19;-3.00;99.90
7427;DHT22;3755;59.316;18.092;2023-03-07T07:54:27;-2.70;99.90
7427;DHT22;3755;59.316;18.092;2023-03-07T07:57:10;-2.70;99.90
7427;DHT22;3755;59.316;18.092;2023-03-07T07:59:58;-2.60;99.90
7427;DHT22;3755;59.316;18.092;2023-03-07T08:02:54;-2.40;99.90
7427;DHT22;3755;59.316;18.092;2023-03-07T08:05:46;-2.40;99.90
7427;DHT22;3755;59.316;18.092;2023-03-07T08:08:57;-2.30;99.90
7427;DHT22;3755;59.316;18.092;2023-03-07T08:11:47;-2.30;99.90
7427;DHT22;3755;59.316;18.092;2023-03-07T08:14:52;-2.20;99.90
7427;DHT22;3755;59.316;18.092;2023-03-07T08:17:39;-2.10;99.90
7427;DHT22;3755;59.316;18.092;2023-03-07T08:21:06;-2.10;99.90
7427;DHT22;3755;59.316;18.092;2023-03-07T08:23:55;-2.10;99.90
7427;DHT22;3755;59.316;18.092;2023-03-07T08:26:36;-2.00;99.90
7427;DHT22;3755;59.316;18.092;2023-03-07T08:29:23;-1.90;99.90
7427;DHT22;3755;59.316;18.092;2023-03-07T08:32:31;-1.90;99.90
7427;DHT22;3755;59.316;18.092;2023-03-07T08:35:14;-1.80;99.90
7427;DHT22;3755;59.316;18.092;2023-03-07T08:38:14;-1.70;99.90
7427;DHT22;3755;59.316;18.092;2023-03-07T08:44:10;-1.50;99.90
7427;DHT22;3755;59.316;18.092;2023-03-07T09:00:23;-1.20;99.90
7427;DHT22;3755;59.316;18.092;2023-03-07T09:03:20;-1.10;99.90
7427;DHT22;3755;59.316;18.092;2023-03-07T09:05:51;-1.10;99.90
7427;DHT22;3755;59.316;18.092;2023-03-07T09:08:20;-1.00;99.90
7427;DHT22;3755;59.316;18.092;2023-03-07T09:10:50;-1.00;99.90
7427;DHT22;3755;59.316;18.092;2023-03-07T09:13:23;-1.00;99.90
7427;DHT22;3755;59.316;18.092;2023-03-07T09:22:28;-0.80;99.90
7427;DHT22;3755;59.316;18.092;2023-03-07T09:25:10;-0.80;99.90
7427;DHT22;3755;59.316;18.092;2023-03-07T09:27:38;-0.70;99.90
7427;DHT22;3755;59.316;18.092;2023-03-07T09:30:21;-0.60;99.90
7427;DHT22;3755;59.316;18.092;2023-03-07T09:32:50;-0.50;99.90
7427;DHT22;3755;59.316;18.092;2023-03-07T09:35:19;-0.60;99.90
7427;DHT22;3755;59.316;18.092;2023-03-07T09:37:49;-0.60;99.90
7427;DHT22;3755;59.316;18.092;2023-03-07T09:40:21;-0.40;99.90
7427;DHT22;3755;59.316;18.092;2023-03-07T09:42:56;-0.30;99.90
7427;DHT22;3755;59.316;18.092;2023-03-07T09:45:47;-0.40;99.90
7427;DHT22;3755;59.316;18.092;2023-03-07T09:51:19;-0.30;99.90
7427;DHT22;3755;59.316;18.092;2023-03-07T10:31:28;-0.10;99.50
7427;DHT22;3755;59.316;18.092;2023-03-07T10:34:20;-0.10;99.20
7427;DHT22;3755;59.316;18.092;2023-03-07T10:37:40;-0.20;99.30
7427;DHT22;3755;59.316;18.092;2023-03-07T10:40:18;-0.10;99.10
7427;DHT22;3755;59.316;18.092;2023-03-07T10:43:02;-0.10;98.80
7427;DHT22;3755;59.316;18.092;2023-03-07T10:45:39;0.20;97.60
7427;DHT22;3755;59.316;18.092;2023-03-07T10:48:20;0.30;97.20
7427;DHT22;3755;59.316;18.092;2023-03-07T10:51:10;0.20;96.80
7427;DHT22;3755;59.316;18.092;2023-03-07T11:01:54;0.30;97.50
7427;DHT22;3755;59.316;18.092;2023-03-07T11:04:46;0.20;97.50
7427;DHT22;3755;59.316;18.092;2023-03-07T11:07:47;0.20;96.70
7427;DHT22;3755;59.316;18.092;2023-03-07T11:10:30;0.20;96.90
7427;DHT22;3755;59.316;18.092;2023-03-07T11:13:17;0.30;97.10
7427;DHT22;3755;59.316;18.092;2023-03-07T11:15:49;0.30;96.90
7427;DHT22;3755;59.316;18.092;2023-03-07T11:18:29;0.40;97.20
7427;DHT22;3755;59.316;18.092;2023-03-07T11:21:36;0.30;97.30
7427;DHT22;3755;59.316;18.092;2023-03-07T11:24:24;0.30;97.50
7427;DHT22;3755;59.316;18.092;2023-03-07T11:26:53;0.30;97.40
7427;DHT22;3755;59.316;18.092;2023-03-07T11:29:24;0.40;97.60
7427;DHT22;3755;59.316;18.092;2023-03-07T11:32:01;0.40;96.80
7427;DHT22;3755;59.316;18.092;2023-03-07T11:34:39;0.30;96.40
7427;DHT22;3755;59.316;18.092;2023-03-07T11:37:26;0.20;97.00
7427;DHT22;3755;59.316;18.092;2023-03-07T11:43:19;0.20;97.30
7427;DHT22;3755;59.316;18.092;2023-03-07T11:45:53;0.30;97.10
7427;DHT22;3755;59.316;18.092;2023-03-07T12:43:58;0.20;99.00
7427;DHT22;3755;59.316;18.092;2023-03-07T12:46:48;0.30;99.20
7427;DHT22;3755;59.316;18.092;2023-03-07T12:49:22;0.20;99.10
7427;DHT22;3755;59.316;18.092;2023-03-07T12:51:54;0.20;99.20
7427;DHT22;3755;59.316;18.092;2023-03-07T12:54:28;0.30;99.60
7427;DHT22;3755;59.316;18.092;2023-03-07T12:57:00;0.30;99.80
7427;DHT22;3755;59.316;18.092;2023-03-07T12:59:50;0.30;99.90
7427;DHT22;3755;59.316;18.092;2023-03-07T13:02:23;0.30;99.80
7427;DHT22;3755;59.316;18.092;2023-03-07T13:04:58;0.30;99.90
7427;DHT22;3755;59.316;18.092;2023-03-07T13:07:43;0.20;99.90
7427;DHT22;3755;59.316;18.092;2023-03-07T13:10:28;0.30;99.90
7427;DHT22;3755;59.316;18.092;2023-03-07T13:12:56;0.10;99.90
7427;DHT22;3755;59.316;18.092;2023-03-07T13:18:31;0.20;99.90
7427;DHT22;3755;59.316;18.092;2023-03-07T13:24:33;0.20;99.90
7427;DHT22;3755;59.316;18.092;2023-03-07T13:27:12;0.10;99.90
7427;DHT22;3755;59.316;18.092;2023-03-07T13:30:02;0.10;99.90
7427;DHT22;3755;59.316;18.092;2023-03-07T13:32:54;0.20;99.90
7427;DHT22;3755;59.316;18.092;2023-03-07T13:35:54;0.20;99.90
7427;DHT22;3755;59.316;18.092;2023-03-07T13:38:33;0.10;99.90
7427;DHT22;3755;59.316;18.092;2023-03-07T13:41:46;0.10;99.90
7427;DHT22;3755;59.316;18.092;2023-03-07T13:44:28;0.20;99.90
7427;DHT22;3755;59.316;18.092;2023-03-07T13:47:40;0.10;99.90
7427;DHT22;3755;59.316;18.092;2023-03-07T13:50:38;0.00;99.90
7427;DHT22;3755;59.316;18.092;2023-03-07T13:53:42;0.00;99.90
7427;DHT22;3755;59.316;18.092;2023-03-07T13:56:26;0.00;99.90
7427;DHT22;3755;59.316;18.092;2023-03-07T13:59:18;-0.10;99.90
7427;DHT22;3755;59.316;18.092;2023-03-07T14:02:01;-0.10;99.90
7427;DHT22;3755;59.316;18.092;2023-03-07T14:04:51;-0.10;99.90
7427;DHT22;3755;59.316;18.092;2023-03-07T14:07:24;-0.20;99.90
7427;DHT22;3755;59.316;18.092;2023-03-07T14:09:56;-0.20;99.90
7427;DHT22;3755;59.316;18.092;2023-03-07T14:12:33;-0.20;99.90
7427;DHT22;3755;59.316;18.092;2023-03-07T14:15:22;-0.20;99.90
7427;DHT22;3755;59.316;18.092;2023-03-07T14:18:02;-0.30;99.90
7427;DHT22;3755;59.316;18.092;2023-03-07T14:20:48;-0.40;99.90
7427;DHT22;3755;59.316;18.092;2023-03-07T14:26:20;-0.60;99.90
7427;DHT22;3755;59.316;18.092;2023-03-07T14:28:57;-0.60;99.90
7427;DHT22;3755;59.316;18.092;2023-03-07T14:31:26;-0.70;99.90
7427;DHT22;3755;59.316;18.092;2023-03-07T14:33:56;-0.70;99.90
7427;DHT22;3755;59.316;18.092;2023-03-07T14:36:26;-0.70;99.90
7427;DHT22;3755;59.316;18.092;2023-03-07T14:38:56;-0.70;99.90
7427;DHT22;3755;59.316;18.092;2023-03-07T14:41:38;-0.40;99.90
7427;DHT22;3755;59.316;18.092;2023-03-07T14:44:25;-0.90;99.90
7427;DHT22;3755;59.316;18.092;2023-03-07T14:47:05;-0.90;99.90
7427;DHT22;3755;59.316;18.092;2023-03-07T14:49:42;-0.90;99.90
7427;DHT22;3755;59.316;18.092;2023-03-07T14:52:15;-1.00;99.90
7427;DHT22;3755;59.316;18.092;2023-03-07T14:54:45;-1.00;99.90
7427;DHT22;3755;59.316;18.092;2023-03-07T14:57:20;-1.00;99.90
7427;DHT22;3755;59.316;18.092;2023-03-07T15:00:11;-1.00;99.90
7427;DHT22;3755;59.316;18.092;2023-03-07T15:02:51;-1.00;99.90
7427;DHT22;3755;59.316;18.092;2023-03-07T15:05:20;-1.00;99.90
7427;DHT22;3755;59.316;18.092;2023-03-07T15:07:48;-1.10;99.90
7427;DHT22;3755;59.316;18.092;2023-03-07T15:10:27;-1.10;99.90
7427;DHT22;3755;59.316;18.092;2023-03-07T15:12:59;-1.20;99.90
7427;DHT22;3755;59.316;18.092;2023-03-07T15:15:47;-1.20;99.90
7427;DHT22;3755;59.316;18.092;2023-03-07T15:18:19;-1.30;99.90
7427;DHT22;3755;59.316;18.092;2023-03-07T15:21:03;-1.30;99.90
7427;DHT22;3755;59.316;18.092;2023-03-07T15:23:32;-1.40;99.90
7427;DHT22;3755;59.316;18.092;2023-03-07T15:26:07;-1.40;99.90
7427;DHT22;3755;59.316;18.092;2023-03-07T15:28:39;-1.40;99.90
7427;DHT22;3755;59.316;18.092;2023-03-07T15:31:08;-1.40;99.90
7427;DHT22;3755;59.316;18.092;2023-03-07T15:33:36;-1.50;99.90
7427;DHT22;3755;59.316;18.092;2023-03-07T15:36:16;-1.50;99.90
7427;DHT22;3755;59.316;18.092;2023-03-07T15:38:46;-1.40;99.90
7427;DHT22;3755;59.316;18.092;2023-03-07T15:41:32;-1.50;99.90
7427;DHT22;3755;59.316;18.092;2023-03-07T15:44:17;-1.50;99.90
7427;DHT22;3755;59.316;18.092;2023-03-07T15:46:58;-1.50;99.90
7427;DHT22;3755;59.316;18.092;2023-03-07T15:49:50;-1.50;99.90
7427;DHT22;3755;59.316;18.092;2023-03-07T15:52:26;-1.50;99.90
7427;DHT22;3755;59.316;18.092;2023-03-07T15:55:16;-1.60;99.90
7427;DHT22;3755;59.316;18.092;2023-03-07T15:57:57;-1.60;99.90
7427;DHT22;3755;59.316;18.092;2023-03-07T16:00:31;-1.60;99.90
7427;DHT22;3755;59.316;18.092;2023-03-07T16:03:19;-1.60;99.90
7427;DHT22;3755;59.316;18.092;2023-03-07T16:05:47;-1.60;99.90
7427;DHT22;3755;59.316;18.092;2023-03-07T16:08:17;-1.60;99.90
7427;DHT22;3755;59.316;18.092;2023-03-07T16:10:48;-1.60;99.90
7427;DHT22;3755;59.316;18.092;2023-03-07T16:13:18;-1.60;99.90
7427;DHT22;3755;59.316;18.092;2023-03-07T16:16:04;-1.60;99.90
7427;DHT22;3755;59.316;18.092;2023-03-07T16:18:45;-1.60;99.90
7427;DHT22;3755;59.316;18.092;2023-03-07T16:21:26;-1.70;99.90
7427;DHT22;3755;59.316;18.092;2023-03-07T16:27:09;-1.70;99.90
7427;DHT22;3755;59.316;18.092;2023-03-07T16:29:53;-1.70;99.90
7427;DHT22;3755;59.316;18.092;2023-03-07T16:32:36;-1.80;99.90
7427;DHT22;3755;59.316;18.092;2023-03-07T16:35:20;-1.70;99.90
7427;DHT22;3755;59.316;18.092;2023-03-07T16:37:49;-1.70;99.90
7427;DHT22;3755;59.316;18.092;2023-03-07T16:40:17;-1.60;99.90
7427;DHT22;3755;59.316;18.092;2023-03-07T16:42:48;-1.70;99.90
7427;DHT22;3755;59.316;18.092;2023-03-07T16:45:21;-1.70;99.90
7427;DHT22;3755;59.316;18.092;2023-03-07T16:48:16;-1.70;99.90
7427;DHT22;3755;59.316;18.092;2023-03-07T16:50:57;-1.70;99.90
7427;DHT22;3755;59.316;18.092;2023-03-07T16:53:25;-1.70;99.90
7427;DHT22;3755;59.316;18.092;2023-03-07T16:55:53;-1.60;99.90
7427;DHT22;3755;59.316;18.092;2023-03-07T16:58:24;-1.70;99.90
7427;DHT22;3755;59.316;18.092;2023-03-07T17:00:54;-1.60;99.90
7427;DHT22;3755;59.316;18.092;2023-03-07T17:03:25;-1.70;99.90
7427;DHT22;3755;59.316;18.092;2023-03-07T17:05:54;-1.70;99.90
7427;DHT22;3755;59.316;18.092;2023-03-07T17:08:21;-1.80;99.90
7427;DHT22;3755;59.316;18.092;2023-03-07T17:10:49;-1.80;99.90
7427;DHT22;3755;59.316;18.092;2023-03-07T17:13:17;-1.80;99.90
7427;DHT22;3755;59.316;18.092;2023-03-07T17:15:45;-1.80;99.90
7427;DHT22;3755;59.316;18.092;2023-03-07T17:18:19;-1.80;99.90
7427;DHT22;3755;59.316;18.092;2023-03-07T17:20:52;-1.70;99.90
7427;DHT22;3755;59.316;18.092;2023-03-07T17:23:20;-1.70;99.90
7427;DHT22;3755;59.316;18.092;2023-03-07T17:25:47;-1.70;99.90
7427;DHT22;3755;59.316;18.092;2023-03-07T17:28:14;-2.00;99.90
7427;DHT22;3755;59.316;18.092;2023-03-07T17:30:42;-1.80;99.90
7427;DHT22;3755;59.316;18.092;2023-03-07T17:33:11;-1.90;99.90
7427;DHT22;3755;59.316;18.092;2023-03-07T17:35:41;-1.90;99.90
7427;DHT22;3755;59.316;18.092;2023-03-07T17:38:10;-1.90;99.90
7427;DHT22;3755;59.316;18.092;2023-03-07T17:40:38;-1.90;99.90
7427;DHT22;3755;59.316;18.092;2023-03-07T17:43:06;-1.90;99.90
7427;DHT22;3755;59.316;18.092;2023-03-07T17:45:37;-1.90;99.90
7427;DHT22;3755;59.316;18.092;2023-03-07T17:48:05;-1.90;99.90
7427;DHT22;3755;59.316;18.092;2023-03-07T17:50:33;-1.80;99.90
7427;DHT22;3755;59.316;18.092;2023-03-07T17:53:01;-1.80;99.90
7427;DHT22;3755;59.316;18.092;2023-03-07T17:55:31;-1.80;99.90
7427;DHT22;3755;59.316;18.092;2023-03-07T17:57:58;-1.70;99.90
7427;DHT22;3755;59.316;18.092;2023-03-07T18:00:27;-1.70;99.90
7427;DHT22;3755;59.316;18.092;2023-03-07T18:02:55;-1.70;99.90
7427;DHT22;3755;59.316;18.092;2023-03-07T18:05:23;-1.60;99.90
7427;DHT22;3755;59.316;18.092;2023-03-07T18:07:51;-1.60;99.90
7427;DHT22;3755;59.316;18.092;2023-03-07T18:10:19;-1.60;99.90
7427;DHT22;3755;59.316;18.092;2023-03-07T18:12:49;-1.50;99.90
7427;DHT22;3755;59.316;18.092;2023-03-07T18:15:19;-1.50;99.90
7427;DHT22;3755;59.316;18.092;2023-03-07T18:17:47;-1.40;99.90
7427;DHT22;3755;59.316;18.092;2023-03-07T18:20:17;-1.40;99.90
7427;DHT22;3755;59.316;18.092;2023-03-07T18:22:46;-1.40;99.90
7427;DHT22;3755;59.316;18.092;2023-03-07T18:25:15;-1.30;99.90
7427;DHT22;3755;59.316;18.092;2023-03-07T18:27:43;-1.30;99.90
7427;DHT22;3755;59.316;18.092;2023-03-07T18:30:13;-1.30;99.90
7427;DHT22;3755;59.316;18.092;2023-03-07T18:33:08;-1.30;99.90
7427;DHT22;3755;59.316;18.092;2023-03-07T18:35:36;-1.20;99.90
7427;DHT22;3755;59.316;18.092;2023-03-07T18:38:05;-1.20;99.90
7427;DHT22;3755;59.316;18.092;2023-03-07T18:40:33;-1.20;99.90
7427;DHT22;3755;59.316;18.092;2023-03-07T18:43:00;-1.20;99.90
7427;DHT22;3755;59.316;18.092;2023-03-07T18:45:31;-1.20;99.90
7427;DHT22;3755;59.316;18.092;2023-03-07T18:48:00;-1.20;99.90
7427;DHT22;3755;59.316;18.092;2023-03-07T18:50:28;-1.20;99.90
7427;DHT22;3755;59.316;18.092;2023-03-07T18:52:56;-1.20;99.90
7427;DHT22;3755;59.316;18.092;2023-03-07T18:55:24;-1.20;99.90
7427;DHT22;3755;59.316;18.092;2023-03-07T18:57:52;-1.20;99.90
7427;DHT22;3755;59.316;18.092;2023-03-07T19:00:20;-1.20;99.90
7427;DHT22;3755;59.316;18.092;2023-03-07T19:02:49;-1.20;99.90
7427;DHT22;3755;59.316;18.092;2023-03-07T19:05:17;-1.20;99.90
7427;DHT22;3755;59.316;18.092;2023-03-07T19:10:36;-1.30;99.90
7427;DHT22;3755;59.316;18.092;2023-03-07T19:16:12;-1.30;99.90
7427;DHT22;3755;59.316;18.092;2023-03-07T19:18:41;-1.30;99.90
7427;DHT22;3755;59.316;18.092;2023-03-07T19:21:11;-1.30;99.90
7427;DHT22;3755;59.316;18.092;2023-03-07T19:23:41;-1.30;99.90
7427;DHT22;3755;59.316;18.092;2023-03-07T19:26:10;-1.40;99.90
7427;DHT22;3755;59.316;18.092;2023-03-07T19:28:38;-1.30;99.90
7427;DHT22;3755;59.316;18.092;2023-03-07T19:31:08;-1.30;99.90
7427;DHT22;3755;59.316;18.092;2023-03-07T19:33:37;-1.30;99.90
7427;DHT22;3755;59.316;18.092;2023-03-07T19:36:08;-1.30;99.90
7427;DHT22;3755;59.316;18.092;2023-03-07T19:38:36;-1.30;99.90
7427;DHT22;3755;59.316;18.092;2023-03-07T19:41:04;-1.20;99.90
7427;DHT22;3755;59.316;18.092;2023-03-07T19:43:32;-1.20;99.90
7427;DHT22;3755;59.316;18.092;2023-03-07T19:46:04;-1.20;99.90
7427;DHT22;3755;59.316;18.092;2023-03-07T19:48:32;-1.20;99.90
7427;DHT22;3755;59.316;18.092;2023-03-07T19:51:00;-1.20;99.90
7427;DHT22;3755;59.316;18.092;2023-03-07T19:53:29;-1.20;99.90
7427;DHT22;3755;59.316;18.092;2023-03-07T19:55:56;-1.10;99.90
7427;DHT22;3755;59.316;18.092;2023-03-07T19:58:24;-1.20;99.90